Time;durP1;ratioP1;P1;durP2;ratioP2;P2;SDS_P1;SDS_P2;PMS_P1;PMS_P2;Temp;Humidity;BMP_temperature;BMP_pressure;BME280_temperature;BME280_humidity;BME280_pressure;Samples;Min_cycle;Max_cycle;Signal;HPM_P1;HPM_P2
2023/03/06 00:01:07;;;;;;;0.00;0.00;;;4.70;99.90;;;;;;4943993;28;19906;-78
2023/03/06 00:03:36;;;;;;;0.00;0.00;;;4.70;99.90;;;;;;4961624;28;20030;-79
2023/03/06 00:06:10;;;;;;;0.00;0.00;;;4.60;99.90;;;;;;4946093;28;20109;-78
2023/03/06 00:08:36;;;;;;;0.25;0.25;;;4.60;99.90;;;;;;4962943;28;20048;-79
2023/03/06 00:11:02;;;;;;;1.00;0.43;;;4.50;99.90;;;;;;4961110;28;20439;-79
2023/03/06 00:13:30;;;;;;;0.00;0.00;;;4.60;99.90;;;;;;4959423;28;20575;-79
2023/03/06 00:16:11;;;;;;;0.00;0.00;;;4.60;99.90;;;;;;4960525;28;20082;-79
2023/03/06 00:18:58;;;;;;;0.00;0.00;;;4.60;99.90;;;;;;4962218;28;20451;-79
2023/03/06 00:21:28;;;;;;;0.00;0.00;;;4.60;99.90;;;;;;4960123;28;20051;-79
2023/03/06 00:23:58;;;;;;;0.22;0.22;;;4.60;99.90;;;;;;4961434;28;20089;-78
2023/03/06 00:26:27;;;;;;;0.00;0.00;;;4.60;99.90;;;;;;4961123;28;20034;-78
2023/03/06 00:28:57;;;;;;;0.00;0.00;;;4.60;99.90;;;;;;4960386;28;20023;-78
2023/03/06 00:31:24;;;;;;;0.00;0.00;;;4.60;99.90;;;;;;4960724;28;20037;-79
2023/03/06 00:33:57;;;;;;;0.00;0.00;;;4.60;99.90;;;;;;4965277;28;20058;-79
2023/03/06 00:36:34;;;;;;;0.00;0.00;;;4.60;99.90;;;;;;4961080;28;20026;-79
2023/03/06 00:38:59;;;;;;;0.00;0.00;;;4.50;99.90;;;;;;4961679;28;20039;-78
2023/03/06 00:41:32;;;;;;;0.00;0.00;;;4.60;99.90;;;;;;4962307;28;20568;-78
2023/03/06 00:43:59;;;;;;;0.00;0.00;;;4.50;99.90;;;;;;4962776;28;20102;-79
2023/03/06 00:46:24;;;;;;;0.00;0.00;;;4.50;99.90;;;;;;4958660;28;20034;-78
2023/03/06 00:48:58;;;;;;;0.00;0.00;;;4.50;99.90;;;;;;4961063;28;20085;-79
2023/03/06 00:51:28;;;;;;;0.00;0.00;;;4.50;99.90;;;;;;4957510;28;20026;-79
2023/03/06 00:53:59;;;;;;;0.00;0.00;;;4.50;99.90;;;;;;4945295;28;20432;-79
2023/03/06 00:56:24;;;;;;;0.77;0.55;;;4.50;99.80;;;;;;4944373;28;20019;-79
2023/03/06 00:59:00;;;;;;;0.00;0.00;;;4.40;99.90;;;;;;4960497;28;20488;-79
2023/03/06 01:01:26;;;;;;;0.52;0.45;;;4.50;99.60;;;;;;4956965;28;20023;-79
2023/03/06 01:03:53;;;;;;;0.00;0.00;;;4.50;99.50;;;;;;4961243;28;20065;-79
2023/03/06 01:06:32;;;;;;;0.00;0.00;;;4.50;99.40;;;;;;4960498;28;20022;-79
2023/03/06 01:08:58;;;;;;;0.00;0.00;;;4.50;98.90;;;;;;4960743;28;20473;-79
2023/03/06 01:11:27;;;;;;;0.00;0.00;;;4.50;99.00;;;;;;4953724;28;20033;-79
2023/03/06 01:13:53;;;;;;;2.05;1.88;;;4.40;99.50;;;;;;4947010;28;20118;-79
2023/03/06 01:16:20;;;;;;;0.00;0.00;;;4.40;99.50;;;;;;4956452;28;20826;-79
2023/03/06 01:18:47;;;;;;;0.00;0.00;;;4.40;99.50;;;;;;4960315;28;20373;-79
2023/03/06 01:21:15;;;;;;;0.00;0.00;;;4.40;99.40;;;;;;4961064;28;20034;-79
2023/03/06 01:23:41;;;;;;;0.00;0.00;;;4.40;99.20;;;;;;4959901;28;20035;-79
2023/03/06 01:26:09;;;;;;;0.00;0.00;;;4.40;99.00;;;;;;4962458;28;20030;-79
2023/03/06 01:28:37;;;;;;;0.00;0.00;;;4.40;99.10;;;;;;4960086;28;20031;-79
2023/03/06 01:31:04;;;;;;;0.00;0.00;;;4.40;99.70;;;;;;4959885;28;20027;-79
2023/03/06 01:33:31;;;;;;;0.00;0.00;;;4.40;99.00;;;;;;4955333;28;20034;-79
2023/03/06 01:35:56;;;;;;;0.00;0.00;;;4.30;98.90;;;;;;4957550;28;20027;-78
2023/03/06 01:38:22;;;;;;;0.00;0.00;;;4.40;99.00;;;;;;4960166;28;20026;-79
2023/03/06 01:40:58;;;;;;;0.00;0.00;;;4.40;99.40;;;;;;4962074;28;20022;-79
2023/03/06 01:43:27;;;;;;;0.00;0.00;;;4.30;99.40;;;;;;4959654;28;20464;-79
2023/03/06 01:46:12;;;;;;;0.00;0.00;;;4.30;99.60;;;;;;4944434;28;20601;-79
2023/03/06 01:48:40;;;;;;;0.00;0.00;;;4.30;99.50;;;;;;4965025;28;20023;-78
2023/03/06 01:51:13;;;;;;;0.00;0.00;;;4.30;99.00;;;;;;4959698;28;20527;-79
2023/03/06 01:53:42;;;;;;;0.00;0.00;;;4.40;98.40;;;;;;4964012;28;20547;-78
2023/03/06 01:56:11;;;;;;;0.00;0.00;;;4.40;98.40;;;;;;4959091;28;20101;-79
2023/03/06 01:58:42;;;;;;;0.00;0.00;;;4.40;98.60;;;;;;4961902;28;20026;-79
2023/03/06 02:01:13;;;;;;;0.00;0.00;;;4.30;98.50;;;;;;4960652;28;20023;-79
2023/03/06 02:03:44;;;;;;;0.00;0.00;;;4.40;98.60;;;;;;4964514;28;20023;-80
2023/03/06 02:06:11;;;;;;;0.00;0.00;;;4.30;98.70;;;;;;4958391;28;20039;-79
2023/03/06 02:08:38;;;;;;;;;;;4.30;98.10;;;;;;4943009;28;20023;-79
2023/03/06 02:11:07;;;;;;;0.00;0.00;;;4.30;98.30;;;;;;4966575;28;19913;-79
2023/03/06 02:13:35;;;;;;;0.00;0.00;;;4.30;98.00;;;;;;4961343;28;20019;-79
2023/03/06 02:16:08;;;;;;;0.00;0.00;;;4.30;97.60;;;;;;4960855;28;20061;-79
2023/03/06 02:18:37;;;;;;;0.00;0.00;;;4.30;97.70;;;;;;4956102;28;20038;-79
2023/03/06 02:21:19;;;;;;;0.00;0.00;;;4.40;97.50;;;;;;4964578;28;20023;-78
2023/03/06 02:27:06;;;;;;;0.00;0.00;;;4.30;97.80;;;;;;4965446;28;20117;-79
2023/03/06 02:29:33;;;;;;;0.00;0.00;;;4.30;97.20;;;;;;4964898;28;20030;-78
2023/03/06 02:32:06;;;;;;;0.00;0.00;;;4.30;97.30;;;;;;4961242;28;20416;-79
2023/03/06 02:34:47;;;;;;;0.00;0.00;;;4.30;97.00;;;;;;4964949;28;20051;-78
2023/03/06 02:37:13;;;;;;;0.00;0.00;;;4.40;97.10;;;;;;4965200;28;20124;-79
2023/03/06 02:39:42;;;;;;;;;;;4.30;97.40;;;;;;4963119;28;20054;-79
2023/03/06 02:42:08;;;;;;;0.00;0.00;;;4.30;97.60;;;;;;4963319;28;20004;-79
2023/03/06 02:44:39;;;;;;;0.00;0.00;;;4.30;97.50;;;;;;4963353;28;20484;-79
2023/03/06 02:47:07;;;;;;;0.00;0.00;;;4.30;97.70;;;;;;4964114;28;20030;-78
2023/03/06 02:49:33;;;;;;;0.00;0.00;;;4.20;97.30;;;;;;4947281;28;20031;-79
2023/03/06 02:52:03;;;;;;;0.00;0.00;;;4.30;97.40;;;;;;4947267;28;20026;-79
2023/03/06 02:54:32;;;;;;;0.00;0.00;;;4.20;97.30;;;;;;4962554;28;20031;-79
2023/03/06 02:56:59;;;;;;;0.00;0.00;;;4.20;97.40;;;;;;4947871;28;20034;-79
2023/03/06 02:59:33;;;;;;;0.00;0.00;;;4.20;97.50;;;;;;4970957;28;20019;-79
2023/03/06 03:02:10;;;;;;;0.00;0.00;;;4.30;97.40;;;;;;4942604;28;20413;-79
2023/03/06 03:04:41;;;;;;;0.00;0.00;;;4.20;97.30;;;;;;4964476;28;20538;-79
2023/03/06 03:07:11;;;;;;;0.00;0.00;;;4.20;97.10;;;;;;4950774;28;20109;-79
2023/03/06 03:09:36;;;;;;;0.00;0.00;;;4.20;97.20;;;;;;4963876;28;20697;-79
2023/03/06 03:12:04;;;;;;;0.00;0.00;;;4.30;97.20;;;;;;4941998;28;20030;-79
2023/03/06 03:14:31;;;;;;;0.00;0.00;;;4.20;97.00;;;;;;4948037;28;20027;-78
2023/03/06 03:16:56;;;;;;;;;;;4.20;96.80;;;;;;4963343;28;20047;-79
2023/03/06 03:19:27;;;;;;;0.00;0.00;;;4.20;96.90;;;;;;4946097;28;19940;-78
2023/03/06 03:21:52;;;;;;;0.00;0.00;;;4.10;97.00;;;;;;4945663;28;20850;-79
2023/03/06 03:24:26;;;;;;;0.00;0.00;;;4.20;97.10;;;;;;4973074;28;20110;-79
2023/03/06 03:26:57;;;;;;;0.00;0.00;;;4.10;97.50;;;;;;4957697;28;20023;-79
2023/03/06 03:29:24;;;;;;;0.00;0.00;;;4.10;97.80;;;;;;4961115;28;20033;-79
2023/03/06 03:31:50;;;;;;;0.00;0.00;;;4.00;97.80;;;;;;4961806;28;20046;-79
2023/03/06 03:34:17;;;;;;;0.00;0.00;;;4.00;97.30;;;;;;4962116;28;20089;-79
2023/03/06 03:36:47;;;;;;;0.00;0.00;;;4.00;97.50;;;;;;4969183;28;20027;-79
2023/03/06 03:39:13;;;;;;;0.00;0.00;;;4.10;97.90;;;;;;4963523;28;20066;-79
2023/03/06 03:41:53;;;;;;;0.00;0.00;;;4.00;97.60;;;;;;4963513;28;20046;-79
2023/03/06 03:44:19;;;;;;;0.00;0.00;;;3.90;98.00;;;;;;4957867;28;20022;-79
2023/03/06 03:46:47;;;;;;;0.00;0.00;;;4.00;97.70;;;;;;4963676;28;20096;-79
2023/03/06 03:49:14;;;;;;;0.00;0.00;;;4.00;97.80;;;;;;4965980;28;20423;-79
2023/03/06 03:51:41;;;;;;;;;;;4.00;97.90;;;;;;4963766;28;20421;-79
2023/03/06 03:54:08;;;;;;;0.00;0.00;;;4.00;97.70;;;;;;4960498;28;20291;-79
2023/03/06 03:56:40;;;;;;;0.00;0.00;;;4.00;97.80;;;;;;4961724;28;20027;-79
2023/03/06 03:59:08;;;;;;;0.00;0.00;;;3.90;98.20;;;;;;4959234;28;20058;-79
2023/03/06 04:01:35;;;;;;;0.00;0.00;;;3.90;98.30;;;;;;4961589;28;20023;-79
2023/03/06 04:04:01;;;;;;;0.00;0.00;;;3.90;98.10;;;;;;4962221;28;20468;-78
2023/03/06 04:06:30;;;;;;;0.00;0.00;;;3.90;98.20;;;;;;4967195;28;20080;-79
2023/03/06 04:08:56;;;;;;;0.00;0.00;;;3.90;98.60;;;;;;4959286;28;20490;-81
2023/03/06 04:11:22;;;;;;;0.00;0.00;;;3.80;98.90;;;;;;4960738;28;20084;-79
2023/03/06 04:13:51;;;;;;;0.00;0.00;;;3.90;99.00;;;;;;4962495;28;20109;-79
2023/03/06 04:16:17;;;;;;;0.00;0.00;;;3.90;99.20;;;;;;4959424;28;20026;-79
2023/03/06 04:18:44;;;;;;;0.00;0.00;;;3.80;99.50;;;;;;4945349;28;21601;-79
2023/03/06 04:21:12;;;;;;;0.00;0.00;;;3.80;99.80;;;;;;4945688;28;20030;-79
2023/03/06 04:23:44;;;;;;;0.00;0.00;;;3.90;99.90;;;;;;4963165;28;20099;-79
2023/03/06 04:26:11;;;;;;;0.00;0.00;;;3.80;99.90;;;;;;4962371;28;20031;-79
2023/03/06 04:28:38;;;;;;;0.00;0.00;;;3.80;99.90;;;;;;4961394;28;20187;-79
2023/03/06 04:31:06;;;;;;;0.00;0.00;;;3.90;99.10;;;;;;4960917;28;20023;-79
2023/03/06 04:33:36;;;;;;;0.00;0.00;;;3.90;99.30;;;;;;4962694;28;20023;-79
2023/03/06 04:36:02;;;;;;;0.00;0.00;;;3.90;99.70;;;;;;4962036;28;20022;-79
2023/03/06 04:38:30;;;;;;;;;;;3.90;99.80;;;;;;4962954;28;20038;-79
2023/03/06 04:40:58;;;;;;;0.00;0.00;;;3.90;99.90;;;;;;4958269;28;19906;-79
2023/03/06 04:43:38;;;;;;;0.00;0.00;;;3.90;99.60;;;;;;4956497;28;20388;-79
2023/03/06 04:46:06;;;;;;;0.00;0.00;;;3.90;99.60;;;;;;4946342;28;20033;-79
2023/03/06 04:48:35;;;;;;;0.00;0.00;;;3.90;99.60;;;;;;4962704;28;20050;-79
2023/03/06 04:51:08;;;;;;;0.85;0.85;;;3.90;99.60;;;;;;4960391;28;20401;-79
2023/03/06 04:53:36;;;;;;;0.00;0.00;;;3.90;99.80;;;;;;4962230;28;20480;-79
2023/03/06 04:56:03;;;;;;;0.00;0.00;;;3.90;99.80;;;;;;4962240;28;20023;-79
2023/03/06 04:58:29;;;;;;;0.00;0.00;;;3.90;99.40;;;;;;4962629;28;20026;-78
2023/03/06 05:00:58;;;;;;;0.00;0.00;;;3.90;99.50;;;;;;4961619;28;20031;-79
2023/03/06 05:03:24;;;;;;;0.00;0.00;;;3.90;99.80;;;;;;4962055;28;20720;-79
2023/03/06 05:05:50;;;;;;;0.00;0.00;;;3.90;99.90;;;;;;4956811;28;20027;-79
2023/03/06 05:08:31;;;;;;;0.00;0.00;;;3.90;99.90;;;;;;4960914;28;20527;-79
2023/03/06 05:11:03;;;;;;;0.00;0.00;;;3.90;99.90;;;;;;4938970;28;20023;-79
2023/03/06 05:13:33;;;;;;;0.00;0.00;;;3.90;99.90;;;;;;4945232;28;20027;-79
2023/03/06 05:16:05;;;;;;;0.00;0.00;;;3.90;99.90;;;;;;4962800;28;20067;-78
2023/03/06 05:18:33;;;;;;;0.00;0.00;;;3.90;99.70;;;;;;4961343;28;20019;-79
2023/03/06 05:21:02;;;;;;;0.22;0.22;;;4.00;99.90;;;;;;4960960;28;20023;-80
2023/03/06 05:23:39;;;;;;;0.00;0.00;;;3.90;99.90;;;;;;4959516;28;20039;-79
2023/03/06 05:26:12;;;;;;;0.00;0.00;;;3.90;99.90;;;;;;4944805;28;20061;-78
2023/03/06 05:28:46;;;;;;;0.00;0.00;;;3.90;99.90;;;;;;4962110;28;20015;-78
2023/03/06 05:31:17;;;;;;;0.00;0.00;;;3.90;99.90;;;;;;4962005;28;20019;-79
2023/03/06 05:33:48;;;;;;;0.00;0.00;;;3.90;99.90;;;;;;4962303;28;20110;-79
2023/03/06 05:36:23;;;;;;;0.00;0.00;;;3.90;99.90;;;;;;4958657;28;20137;-79
2023/03/06 05:38:49;;;;;;;0.00;0.00;;;4.00;99.90;;;;;;4968187;28;20142;-79
2023/03/06 05:41:15;;;;;;;0.00;0.00;;;3.90;99.90;;;;;;4960629;28;20109;-79
2023/03/06 05:43:51;;;;;;;0.00;0.00;;;4.00;99.90;;;;;;4960526;28;20392;-79
2023/03/06 05:46:17;;;;;;;0.00;0.00;;;4.00;99.90;;;;;;4962207;28;20083;-78
2023/03/06 05:48:54;;;;;;;0.00;0.00;;;4.00;99.90;;;;;;4960435;28;20133;-79
2023/03/06 05:51:20;;;;;;;0.00;0.00;;;4.10;99.90;;;;;;4960623;28;20061;-78
2023/03/06 05:53:46;;;;;;;0.00;0.00;;;4.00;99.90;;;;;;4961789;28;20472;-79
2023/03/06 05:56:13;;;;;;;;;;;4.10;99.90;;;;;;4965095;28;20871;-79
2023/03/06 05:58:39;;;;;;;0.00;0.00;;;4.10;99.90;;;;;;4948340;28;19909;-79
2023/03/06 06:01:16;;;;;;;0.00;0.00;;;4.10;99.90;;;;;;4963774;28;20859;-78
2023/03/06 06:03:43;;;;;;;0.00;0.00;;;4.10;99.90;;;;;;4965429;28;20031;-78
2023/03/06 06:06:13;;;;;;;0.00;0.00;;;4.10;99.90;;;;;;4965025;28;20022;-79
2023/03/06 06:08:40;;;;;;;0.00;0.00;;;4.10;99.90;;;;;;4960279;28;20048;-79
2023/03/06 06:11:10;;;;;;;0.00;0.00;;;4.20;99.90;;;;;;4964489;28;20031;-78
2023/03/06 06:13:42;;;;;;;0.00;0.00;;;4.30;99.90;;;;;;4964915;28;20027;-77
2023/03/06 06:16:15;;;;;;;0.00;0.00;;;4.20;99.90;;;;;;4964394;28;20030;-77
2023/03/06 06:18:47;;;;;;;0.00;0.00;;;4.30;99.90;;;;;;4953549;28;20053;-75
2023/03/06 06:21:13;;;;;;;0.00;0.00;;;4.30;99.90;;;;;;4960322;28;20120;-68
2023/03/06 06:23:42;;;;;;;0.00;0.00;;;4.30;99.90;;;;;;4963596;28;20384;-77
2023/03/06 06:26:14;;;;;;;0.00;0.00;;;4.40;99.90;;;;;;4964522;28;20051;-77
2023/03/06 06:28:49;;;;;;;0.00;0.00;;;4.60;99.90;;;;;;4947841;28;20054;-77
2023/03/06 06:31:24;;;;;;;0.00;0.00;;;4.60;99.90;;;;;;4942397;28;20727;-77
2023/03/06 06:33:52;;;;;;;0.00;0.00;;;4.70;99.90;;;;;;4965436;28;21138;-77
2023/03/06 06:36:20;;;;;;;0.00;0.00;;;4.80;99.90;;;;;;4964126;28;20519;-77
2023/03/06 06:38:48;;;;;;;0.00;0.00;;;4.90;99.90;;;;;;4950021;28;20357;-77
2023/03/06 06:41:15;;;;;;;0.00;0.00;;;4.80;99.90;;;;;;4964077;28;20030;-77
2023/03/06 06:43:41;;;;;;;0.00;0.00;;;4.80;99.90;;;;;;4964027;28;20030;-77
2023/03/06 06:46:08;;;;;;;0.00;0.00;;;4.70;99.90;;;;;;4964421;28;20026;-77
2023/03/06 06:48:38;;;;;;;0.00;0.00;;;4.80;99.90;;;;;;4958855;28;20388;-77
2023/03/06 06:51:06;;;;;;;0.00;0.00;;;4.70;99.90;;;;;;4964315;28;20027;-77
2023/03/06 06:53:32;;;;;;;0.00;0.00;;;4.70;99.90;;;;;;4959503;28;20029;-77
2023/03/06 06:55:59;;;;;;;0.10;0.10;;;4.70;99.90;;;;;;4974174;28;20011;-78
2023/03/06 06:58:26;;;;;;;0.00;0.00;;;4.90;99.90;;;;;;4965070;28;20034;-77
2023/03/06 07:00:54;;;;;;;0.17;0.10;;;5.10;99.90;;;;;;4963622;28;20027;-78
2023/03/06 07:03:21;;;;;;;0.00;0.00;;;5.20;99.90;;;;;;4962560;28;20558;-77
2023/03/06 07:05:54;;;;;;;;;;;5.20;99.90;;;;;;4942277;28;20073;-77
2023/03/06 07:08:19;;;;;;;0.00;0.00;;;5.30;99.90;;;;;;4964089;28;19917;-78
2023/03/06 07:10:45;;;;;;;0.00;0.00;;;5.50;99.70;;;;;;4963463;28;20027;-77
2023/03/06 07:13:11;;;;;;;0.00;0.00;;;5.50;99.40;;;;;;4963143;28;20472;-77
2023/03/06 07:15:36;;;;;;;0.00;0.00;;;5.60;99.30;;;;;;4962897;28;20022;-77
2023/03/06 07:18:02;;;;;;;0.00;0.00;;;5.60;98.90;;;;;;4962175;28;20057;-78
2023/03/06 07:20:28;;;;;;;0.00;0.00;;;5.60;99.10;;;;;;4964125;28;20860;-78
2023/03/06 07:22:57;;;;;;;0.00;0.00;;;5.60;98.70;;;;;;4969551;28;20733;-78
2023/03/06 07:25:24;;;;;;;0.00;0.00;;;5.70;98.80;;;;;;4961858;28;20038;-78
2023/03/06 07:28:03;;;;;;;0.00;0.00;;;5.70;98.10;;;;;;4964362;28;20153;-78
2023/03/06 07:30:28;;;;;;;0.00;0.00;;;5.90;98.20;;;;;;4964226;28;20089;-77
2023/03/06 07:32:55;;;;;;;0.00;0.00;;;5.90;97.60;;;;;;4963531;28;20019;-78
2023/03/06 07:35:21;;;;;;;0.00;0.00;;;6.00;97.40;;;;;;4946848;28;20027;-78
2023/03/06 07:37:53;;;;;;;0.00;0.00;;;6.00;97.50;;;;;;4962341;28;20040;-77
2023/03/06 07:40:26;;;;;;;0.00;0.00;;;6.10;97.50;;;;;;4960826;28;20027;-78
2023/03/06 07:42:55;;;;;;;0.00;0.00;;;6.20;96.90;;;;;;4963574;28;20033;-77
2023/03/06 07:45:24;;;;;;;0.00;0.00;;;6.30;96.90;;;;;;4967676;28;20030;-78
2023/03/06 07:47:52;;;;;;;0.00;0.00;;;6.40;96.50;;;;;;4964733;28;20054;-78
2023/03/06 07:50:19;;;;;;;0.00;0.00;;;6.60;95.90;;;;;;4969122;28;20115;-78
2023/03/06 07:52:56;;;;;;;;;;;6.70;95.30;;;;;;4959570;28;20031;-78
2023/03/06 07:55:24;;;;;;;7.03;0.65;;;6.70;94.20;;;;;;4962726;28;19910;-78
2023/03/06 07:57:51;;;;;;;0.00;0.00;;;6.50;94.40;;;;;;4963412;28;20815;-77
2023/03/06 08:00:18;;;;;;;0.00;0.00;;;6.40;94.60;;;;;;4945415;28;20030;-78
2023/03/06 08:02:45;;;;;;;0.00;0.00;;;6.50;94.90;;;;;;4963102;28;20057;-77
2023/03/06 08:05:19;;;;;;;;;;;6.60;94.90;;;;;;4962248;28;20022;-77
2023/03/06 08:07:51;;;;;;;0.00;0.00;;;6.70;94.80;;;;;;4961022;28;20642;-77
2023/03/06 08:10:19;;;;;;;0.00;0.00;;;6.90;94.60;;;;;;4963132;28;20026;-77
2023/03/06 08:12:47;;;;;;;0.00;0.00;;;7.00;94.60;;;;;;4961863;28;20030;-77
2023/03/06 08:15:19;;;;;;;0.00;0.00;;;7.10;94.50;;;;;;4958378;28;20031;-78
2023/03/06 08:17:49;;;;;;;0.10;0.10;;;7.10;94.40;;;;;;4945666;28;20073;-78
2023/03/06 08:20:22;;;;;;;0.00;0.00;;;7.20;95.10;;;;;;4956466;28;21399;-78
2023/03/06 08:22:50;;;;;;;0.00;0.00;;;7.30;94.80;;;;;;4961311;28;20033;-78
2023/03/06 08:25:17;;;;;;;0.00;0.00;;;7.40;94.60;;;;;;4960296;28;20031;-78
2023/03/06 08:27:43;;;;;;;;;;;7.50;94.10;;;;;;4960456;28;20027;-78
2023/03/06 08:30:09;;;;;;;0.00;0.00;;;7.50;94.00;;;;;;4954849;28;19913;-78
2023/03/06 08:32:36;;;;;;;0.00;0.00;;;7.60;93.90;;;;;;4940545;28;20031;-77
2023/03/06 08:35:05;;;;;;;0.00;0.00;;;7.70;93.90;;;;;;4958779;28;20039;-78
2023/03/06 08:37:32;;;;;;;0.00;0.00;;;8.00;93.30;;;;;;4961125;28;20019;-77
2023/03/06 08:39:58;;;;;;;0.00;0.00;;;8.00;92.70;;;;;;4938513;28;20078;-78
2023/03/06 08:42:25;;;;;;;0.00;0.00;;;8.00;92.60;;;;;;4960601;28;20070;-78
2023/03/06 08:44:50;;;;;;;0.00;0.00;;;8.10;92.80;;;;;;4960480;28;20023;-77
2023/03/06 08:47:17;;;;;;;0.00;0.00;;;8.40;92.40;;;;;;4956187;28;20060;-78
2023/03/06 08:49:43;;;;;;;0.10;0.10;;;8.80;92.00;;;;;;4961775;28;20037;-77
2023/03/06 08:52:08;;;;;;;0.20;0.20;;;8.90;90.50;;;;;;4961702;28;20027;-77
2023/03/06 08:54:35;;;;;;;0.00;0.00;;;9.20;89.80;;;;;;4957046;28;20027;-77
2023/03/06 08:57:01;;;;;;;;;;;9.70;87.60;;;;;;4962182;28;20481;-77
2023/03/06 08:59:26;;;;;;;0.00;0.00;;;9.70;85.00;;;;;;4962297;28;19913;-77
2023/03/06 09:01:57;;;;;;;0.00;0.00;;;9.20;85.90;;;;;;4955861;28;20018;-77
2023/03/06 09:04:24;;;;;;;0.00;0.00;;;9.30;85.90;;;;;;4960893;28;20105;-76
2023/03/06 09:06:50;;;;;;;;;;;9.50;86.40;;;;;;4957993;28;20031;-77
2023/03/06 09:09:17;;;;;;;0.00;0.00;;;9.20;85.40;;;;;;4961441;28;19921;-78
2023/03/06 09:11:44;;;;;;;0.00;0.00;;;9.20;87.00;;;;;;4961339;28;20027;-77
2023/03/06 09:14:09;;;;;;;;;;;9.40;86.20;;;;;;4962005;28;20109;-77
2023/03/06 09:16:36;;;;;;;0.00;0.00;;;9.70;85.50;;;;;;4956034;28;19961;-77
2023/03/06 09:19:02;;;;;;;;;;;9.70;83.90;;;;;;4959949;28;20018;-77
2023/03/06 09:21:30;;;;;;;0.00;0.00;;;9.90;82.70;;;;;;4941910;28;19910;-77
2023/03/06 09:23:56;;;;;;;10.65;0.88;;;10.30;82.10;;;;;;4958201;28;20035;-77
2023/03/06 09:26:24;;;;;;;0.00;0.00;;;10.00;81.10;;;;;;4958214;28;20029;-77
2023/03/06 09:28:50;;;;;;;0.00;0.00;;;10.50;80.90;;;;;;4958861;28;21267;-77
2023/03/06 09:31:18;;;;;;;;;;;11.40;77.30;;;;;;4965343;28;20026;-77
2023/03/06 09:33:49;;;;;;;0.00;0.00;;;11.30;75.90;;;;;;4965117;28;19902;-78
2023/03/06 09:36:19;;;;;;;0.00;0.00;;;11.70;74.50;;;;;;4964481;28;20404;-78
2023/03/06 09:38:46;;;;;;;0.00;0.00;;;11.50;72.60;;;;;;4964430;28;20430;-78
2023/03/06 09:41:35;;;;;;;0.00;0.00;;;11.20;73.80;;;;;;4965432;28;20027;-78
2023/03/06 09:44:07;;;;;;;0.00;0.00;;;10.60;73.90;;;;;;4967167;28;20022;-78
2023/03/06 09:47:13;;;;;;;0.00;0.00;;;10.30;76.00;;;;;;4965746;28;20074;-77
2023/03/06 09:49:39;;;;;;;0.00;0.00;;;11.00;75.90;;;;;;4966199;28;20063;-78
2023/03/06 09:52:17;;;;;;;0.00;0.00;;;11.50;72.60;;;;;;4971147;28;20046;-77
2023/03/06 09:54:45;;;;;;;0.00;0.00;;;11.30;72.30;;;;;;4964899;28;20027;-77
2023/03/06 09:57:23;;;;;;;0.00;0.00;;;11.60;72.50;;;;;;4960069;28;20023;-78
2023/03/06 10:00:13;;;;;;;0.00;0.00;;;11.90;71.00;;;;;;4965779;28;20018;-78
2023/03/06 10:02:42;;;;;;;0.00;0.00;;;11.10;71.30;;;;;;4966035;28;20152;-78
2023/03/06 10:05:23;;;;;;;0.10;0.10;;;10.90;72.90;;;;;;4965130;28;20323;-76
2023/03/06 10:08:09;;;;;;;0.95;0.45;;;10.30;74.30;;;;;;4959886;28;20030;-78
2023/03/06 10:11:01;;;;;;;0.00;0.00;;;10.10;75.20;;;;;;4958073;28;20037;-78
2023/03/06 10:13:39;;;;;;;0.00;0.00;;;10.80;74.40;;;;;;4945035;28;20031;-75
2023/03/06 10:16:22;;;;;;;0.25;0.20;;;11.40;72.10;;;;;;4960752;28;20420;-77
2023/03/06 10:19:11;;;;;;;0.00;0.00;;;11.70;70.80;;;;;;4968775;28;20025;-75
2023/03/06 10:21:42;;;;;;;0.00;0.00;;;10.50;72.60;;;;;;4964055;28;20070;-75
2023/03/06 10:24:53;;;;;;;0.00;0.00;;;10.00;75.00;;;;;;4959462;28;20113;-77
2023/03/06 10:27:28;;;;;;;0.00;0.00;;;9.80;76.20;;;;;;4962474;28;20058;-76
2023/03/06 10:30:15;;;;;;;0.00;0.00;;;9.90;76.20;;;;;;4963481;28;20023;-76
2023/03/06 10:33:21;;;;;;;0.38;0.38;;;10.20;76.10;;;;;;4963340;28;20121;-76
2023/03/06 10:35:53;;;;;;;0.00;0.00;;;10.00;75.10;;;;;;4963151;28;20026;-77
2023/03/06 10:38:30;;;;;;;0.00;0.00;;;10.60;76.00;;;;;;4959893;28;21011;-77
2023/03/06 10:41:02;;;;;;;0.00;0.00;;;10.50;74.00;;;;;;4963727;28;20163;-77
2023/03/06 10:43:29;;;;;;;0.00;0.00;;;10.60;74.80;;;;;;4964243;28;20026;-79
2023/03/06 10:45:55;;;;;;;0.30;0.28;;;10.40;75.40;;;;;;4963168;28;20486;-76
2023/03/06 10:48:29;;;;;;;0.00;0.00;;;9.80;75.90;;;;;;4964264;28;20098;-77
2023/03/06 10:51:29;;;;;;;0.00;0.00;;;9.90;76.80;;;;;;4941604;28;20054;-77
2023/03/06 10:54:16;;;;;;;0.00;0.00;;;10.50;76.30;;;;;;4964411;28;20027;-76
2023/03/06 10:56:46;;;;;;;0.00;0.00;;;10.60;74.50;;;;;;4963091;28;20110;-76
2023/03/06 10:59:29;;;;;;;0.00;0.00;;;10.60;75.30;;;;;;4941918;28;20033;-76
2023/03/06 11:02:22;;;;;;;0.00;0.00;;;10.80;75.30;;;;;;4945173;28;20008;-77
2023/03/06 11:04:54;;;;;;;0.00;0.00;;;10.90;75.70;;;;;;4959155;28;20656;-76
2023/03/06 11:07:23;;;;;;;0.00;0.00;;;10.80;73.90;;;;;;4961981;28;20165;-77
2023/03/06 11:10:25;;;;;;;0.00;0.00;;;10.40;75.40;;;;;;4962569;28;20043;-76
2023/03/06 11:13:15;;;;;;;0.00;0.00;;;10.20;75.80;;;;;;4962105;28;20098;-76
2023/03/06 11:16:16;;;;;;;0.00;0.00;;;10.10;76.80;;;;;;4959491;28;20034;-76
2023/03/06 11:19:05;;;;;;;0.00;0.00;;;9.80;79.10;;;;;;4958634;28;20038;-78
2023/03/06 11:21:38;;;;;;;0.00;0.00;;;9.90;79.30;;;;;;4964195;28;20023;-77
2023/03/06 11:24:23;;;;;;;0.00;0.00;;;9.50;78.70;;;;;;4962206;28;20504;-78
2023/03/06 11:26:55;;;;;;;0.00;0.00;;;9.80;79.50;;;;;;4958369;28;20084;-75
2023/03/06 11:29:34;;;;;;;0.00;0.00;;;9.60;78.80;;;;;;4947627;28;20089;-78
2023/03/06 11:32:36;;;;;;;0.75;0.75;;;9.30;80.60;;;;;;4961974;28;20540;-76
2023/03/06 11:35:12;;;;;;;0.00;0.00;;;9.40;81.00;;;;;;4967999;28;20019;-75
2023/03/06 11:37:57;;;;;;;0.00;0.00;;;9.40;81.20;;;;;;4962029;28;20125;-75
2023/03/06 11:40:46;;;;;;;0.00;0.00;;;9.20;82.00;;;;;;4941297;28;20134;-75
2023/03/06 11:43:40;;;;;;;5.57;0.38;;;9.50;82.20;;;;;;4945466;28;20156;-75
2023/03/06 11:46:25;;;;;;;0.00;0.00;;;9.60;81.80;;;;;;4963129;28;20018;-75
2023/03/06 11:49:14;;;;;;;0.00;0.00;;;9.40;81.40;;;;;;4960998;28;20113;-77
2023/03/06 11:51:48;;;;;;;0.00;0.00;;;9.30;80.80;;;;;;4969962;28;20501;-77
2023/03/06 11:54:14;;;;;;;0.17;0.17;;;8.90;83.00;;;;;;4962600;28;20099;-76
2023/03/06 11:56:51;;;;;;;0.00;0.00;;;8.90;85.00;;;;;;4963479;28;20022;-75
2023/03/06 11:59:36;;;;;;;0.10;0.10;;;8.90;85.20;;;;;;4958470;28;20026;-76
2023/03/06 12:02:28;;;;;;;0.00;0.00;;;9.00;84.90;;;;;;4969597;28;20028;-76
2023/03/06 12:05:33;;;;;;;0.00;0.00;;;9.10;84.80;;;;;;4961644;28;20027;-77
2023/03/06 12:08:19;;;;;;;0.20;0.20;;;9.10;84.70;;;;;;4960918;28;20688;-76
2023/03/06 12:10:53;;;;;;;0.08;0.08;;;8.80;86.10;;;;;;4939918;28;20039;-75
2023/03/06 12:13:45;;;;;;;0.10;0.10;;;8.60;87.20;;;;;;4962529;28;20026;-75
2023/03/06 12:16:46;;;;;;;0.00;0.00;;;8.40;88.50;;;;;;4963215;28;20027;-76
2023/03/06 12:19:13;;;;;;;0.00;0.00;;;8.60;88.90;;;;;;4963243;28;20097;-77
2023/03/06 12:22:07;;;;;;;0.03;0.03;;;8.80;89.10;;;;;;4957127;28;20050;-75
2023/03/06 12:24:42;;;;;;;0.00;0.00;;;8.90;87.70;;;;;;4944315;28;20038;-77
2023/03/06 12:27:48;;;;;;;0.00;0.00;;;8.90;87.30;;;;;;4959271;28;20097;-77
2023/03/06 12:30:21;;;;;;;0.00;0.00;;;9.10;86.30;;;;;;4956677;28;20034;-75
2023/03/06 12:33:20;;;;;;;0.00;0.00;;;9.10;88.90;;;;;;4969778;28;20205;-75
2023/03/06 12:35:50;;;;;;;;;;;9.40;88.30;;;;;;4962432;28;20030;-75
2023/03/06 12:38:22;;;;;;;0.00;0.00;;;9.80;86.00;;;;;;4961426;28;19924;-74
2023/03/06 12:41:15;;;;;;;0.00;0.00;;;9.90;85.20;;;;;;4958657;28;20081;-74
2023/03/06 12:43:50;;;;;;;0.00;0.00;;;9.80;84.90;;;;;;4957304;28;20126;-74
2023/03/06 12:46:27;;;;;;;0.00;0.00;;;9.60;84.90;;;;;;4968691;28;20019;-75
2023/03/06 12:49:37;;;;;;;0.00;0.00;;;9.70;85.10;;;;;;4957641;28;20400;-75
2023/03/06 12:52:05;;;;;;;0.10;0.10;;;9.70;85.40;;;;;;4959132;28;20030;-74
2023/03/06 12:54:36;;;;;;;0.08;0.08;;;9.80;84.70;;;;;;4961396;28;20042;-74
2023/03/06 12:57:07;;;;;;;0.13;0.13;;;9.90;83.70;;;;;;4957734;28;20116;-74
2023/03/06 12:59:43;;;;;;;0.00;0.00;;;10.00;84.50;;;;;;4959878;28;20026;-74
2023/03/06 13:02:39;;;;;;;0.00;0.00;;;10.10;82.90;;;;;;4963398;28;20015;-74
2023/03/06 13:05:21;;;;;;;0.00;0.00;;;9.90;82.30;;;;;;4960439;28;20026;-75
2023/03/06 13:08:09;;;;;;;0.00;0.00;;;10.00;79.40;;;;;;4965543;28;20037;-74
2023/03/06 13:10:38;;;;;;;0.00;0.00;;;10.10;68.20;;;;;;4958913;28;20051;-75
2023/03/06 13:13:25;;;;;;;0.00;0.00;;;10.10;66.60;;;;;;4962013;28;20027;-75
2023/03/06 13:16:09;;;;;;;0.00;0.00;;;10.30;67.00;;;;;;4957815;28;20026;-74
2023/03/06 13:18:37;;;;;;;0.00;0.00;;;10.00;65.40;;;;;;4944066;28;20495;-74
2023/03/06 13:21:54;;;;;;;0.03;0.03;;;10.00;65.90;;;;;;4958767;28;20026;-74
2023/03/06 13:24:26;;;;;;;0.00;0.00;;;9.80;66.80;;;;;;4951536;28;20108;-74
2023/03/06 13:27:10;;;;;;;0.00;0.00;;;10.00;67.60;;;;;;4957410;28;20042;-75
2023/03/06 13:29:39;;;;;;;0.00;0.00;;;9.80;68.10;;;;;;4961420;28;20034;-74
2023/03/06 13:32:13;;;;;;;0.00;0.00;;;9.90;68.60;;;;;;4958585;28;20026;-74